LiveATC.Net - Listen to live air traffic control over the Internet!


ICAO: KCHK  IATA: CHK   Airport: Chickasha Municipal Airport
City: Chickasha   State/Province: Oklahoma
Country: United States   Continent: North America
KCHK METAR Weather: KCHK 170915Z AUTO 00000KT 10SM CLR 23/22 A2997 RMK AO2 T02310219
KCHK Flight Activity (FlightAware)
KCHK Airport Info   (AirNav) (iFlightPlanner)
KCHK VFR Sectional Chart   (iFlightPlanner) 
KCHK IFR Low Chart   (iFlightPlanner) 

KCHK CTAF
Feed Status: UP   Listeners: 0
Listen right in your browser - requires Flash (in browser, requires Flash)
Click here to listen with your own player (launches your MP3 player)
KCHK CTAF Audio Archives
FacilityFrequency
Chickasha CTAF123.000

NOTICE

Unauthorized use prohibited. See LiveATC.net Terms of Service


Find LiveATC Audio Streams


Airport/ARTCC Code

Frequency Search
(e.g., 124.400, 128.75)
Site-wide search
 


Browse LiveATC Feeds
Top 50 LiveATC Feeds
Bad Weather Areas

LiveATC FAQ
Offer a LiveATC Feed
Contact LiveATC.net
Press Inquiries

LiveATC on iPhone
LiveATC on Android

Windows Phone
Windows 8/10

LiveATC Mobile
(Mobile browser)

ATC Audio Archives
Interesting Recordings

LiveATC Forums


Home Page
About LiveATC.net
Make a Donation
Terms of Use
Privacy Policy

Canadian Air Freqs

AIRMETs/SIGMETs

FAA Airport Status
Nat'l Airspace Status
Arrival Demand Charts


Server Software By:
Icecast.org
Liquidsoap